sensor_id;sensor_type;location;lat;lon;timestamp;P1;durP1;ratioP1;P2;durP2;ratioP2
55718;SDS011;41623;46.104;19.656;2023-02-17T00:02:24;61.30;;;31.00;;
55718;SDS011;41623;46.104;19.656;2023-02-17T00:04:51;67.40;;;30.45;;
55718;SDS011;41623;46.104;19.656;2023-02-17T00:07:17;58.88;;;29.23;;
55718;SDS011;41623;46.104;19.656;2023-02-17T00:09:45;56.67;;;28.85;;
55718;SDS011;41623;46.104;19.656;2023-02-17T00:12:11;56.90;;;25.13;;
55718;SDS011;41623;46.104;19.656;2023-02-17T00:14:40;55.78;;;25.90;;
55718;SDS011;41623;46.104;19.656;2023-02-17T00:17:06;52.40;;;26.25;;
55718;SDS011;41623;46.104;19.656;2023-02-17T00:19:32;43.90;;;24.60;;
55718;SDS011;41623;46.104;19.656;2023-02-17T00:21:58;69.65;;;26.65;;
55718;SDS011;41623;46.104;19.656;2023-02-17T00:24:25;58.50;;;25.05;;
55718;SDS011;41623;46.104;19.656;2023-02-17T00:26:52;63.00;;;28.30;;
55718;SDS011;41623;46.104;19.656;2023-02-17T00:29:20;44.78;;;23.52;;
55718;SDS011;41623;46.104;19.656;2023-02-17T00:31:46;42.83;;;23.13;;
55718;SDS011;41623;46.104;19.656;2023-02-17T00:34:12;53.58;;;24.67;;
55718;SDS011;41623;46.104;19.656;2023-02-17T00:36:39;55.80;;;25.85;;
55718;SDS011;41623;46.104;19.656;2023-02-17T00:39:05;34.53;;;20.00;;
55718;SDS011;41623;46.104;19.656;2023-02-17T00:41:31;30.35;;;16.35;;
55718;SDS011;41623;46.104;19.656;2023-02-17T00:43:58;19.90;;;13.05;;
55718;SDS011;41623;46.104;19.656;2023-02-17T00:46:25;27.60;;;14.95;;
55718;SDS011;41623;46.104;19.656;2023-02-17T00:48:51;26.65;;;15.52;;
55718;SDS011;41623;46.104;19.656;2023-02-17T00:51:17;34.47;;;17.52;;
55718;SDS011;41623;46.104;19.656;2023-02-17T00:53:44;47.58;;;20.25;;
55718;SDS011;41623;46.104;19.656;2023-02-17T00:56:10;41.78;;;21.88;;
55718;SDS011;41623;46.104;19.656;2023-02-17T00:58:37;42.30;;;19.45;;
55718;SDS011;41623;46.104;19.656;2023-02-17T01:01:03;39.70;;;17.00;;
55718;SDS011;41623;46.104;19.656;2023-02-17T01:03:29;32.95;;;14.65;;
55718;SDS011;41623;46.104;19.656;2023-02-17T01:05:55;20.08;;;11.38;;
55718;SDS011;41623;46.104;19.656;2023-02-17T01:08:21;20.75;;;10.48;;
55718;SDS011;41623;46.104;19.656;2023-02-17T01:10:48;20.05;;;10.35;;
55718;SDS011;41623;46.104;19.656;2023-02-17T01:13:15;17.85;;;11.25;;
55718;SDS011;41623;46.104;19.656;2023-02-17T01:15:42;18.25;;;11.60;;
55718;SDS011;41623;46.104;19.656;2023-02-17T01:18:09;13.35;;;8.25;;
55718;SDS011;41623;46.104;19.656;2023-02-17T01:20:35;18.42;;;8.65;;
55718;SDS011;41623;46.104;19.656;2023-02-17T01:23:02;18.92;;;10.98;;
55718;SDS011;41623;46.104;19.656;2023-02-17T01:25:28;14.82;;;8.20;;
55718;SDS011;41623;46.104;19.656;2023-02-17T01:27:54;16.90;;;8.02;;
55718;SDS011;41623;46.104;19.656;2023-02-17T01:30:20;13.55;;;7.85;;
55718;SDS011;41623;46.104;19.656;2023-02-17T01:32:48;13.02;;;6.70;;
55718;SDS011;41623;46.104;19.656;2023-02-17T01:35:14;11.85;;;7.18;;
55718;SDS011;41623;46.104;19.656;2023-02-17T01:37:40;7.53;;;5.85;;
55718;SDS011;41623;46.104;19.656;2023-02-17T01:40:06;11.75;;;7.00;;
55718;SDS011;41623;46.104;19.656;2023-02-17T01:42:33;15.18;;;6.18;;
55718;SDS011;41623;46.104;19.656;2023-02-17T01:47:40;8.23;;;6.13;;
55718;SDS011;41623;46.104;19.656;2023-02-17T01:50:07;12.30;;;5.97;;
55718;SDS011;41623;46.104;19.656;2023-02-17T01:52:33;18.25;;;8.35;;
55718;SDS011;41623;46.104;19.656;2023-02-17T01:55:01;11.52;;;7.85;;
55718;SDS011;41623;46.104;19.656;2023-02-17T01:57:29;12.43;;;7.40;;
55718;SDS011;41623;46.104;19.656;2023-02-17T01:59:57;17.83;;;8.30;;
55718;SDS011;41623;46.104;19.656;2023-02-17T02:02:23;10.95;;;6.68;;
55718;SDS011;41623;46.104;19.656;2023-02-17T02:04:50;11.88;;;7.45;;
55718;SDS011;41623;46.104;19.656;2023-02-17T02:07:17;14.93;;;8.23;;
55718;SDS011;41623;46.104;19.656;2023-02-17T02:09:46;11.75;;;6.97;;
55718;SDS011;41623;46.104;19.656;2023-02-17T02:12:18;15.73;;;8.15;;
55718;SDS011;41623;46.104;19.656;2023-02-17T02:14:44;12.70;;;7.60;;
55718;SDS011;41623;46.104;19.656;2023-02-17T02:17:12;16.27;;;9.07;;
55718;SDS011;41623;46.104;19.656;2023-02-17T02:27:26;15.52;;;8.05;;
55718;SDS011;41623;46.104;19.656;2023-02-17T02:30:14;10.23;;;7.30;;
55718;SDS011;41623;46.104;19.656;2023-02-17T02:32:47;13.20;;;7.53;;
55718;SDS011;41623;46.104;19.656;2023-02-17T02:37:43;14.88;;;8.23;;
55718;SDS011;41623;46.104;19.656;2023-02-17T02:40:13;12.50;;;7.68;;
55718;SDS011;41623;46.104;19.656;2023-02-17T02:42:39;11.40;;;6.68;;
55718;SDS011;41623;46.104;19.656;2023-02-17T02:45:06;10.48;;;6.97;;
55718;SDS011;41623;46.104;19.656;2023-02-17T02:50:05;11.25;;;7.72;;
55718;SDS011;41623;46.104;19.656;2023-02-17T02:52:36;8.68;;;6.45;;
55718;SDS011;41623;46.104;19.656;2023-02-17T02:55:06;14.05;;;7.80;;
55718;SDS011;41623;46.104;19.656;2023-02-17T02:57:48;11.77;;;7.25;;
55718;SDS011;41623;46.104;19.656;2023-02-17T03:03:31;15.45;;;8.40;;
55718;SDS011;41623;46.104;19.656;2023-02-17T03:07:59;11.73;;;7.63;;
55718;SDS011;41623;46.104;19.656;2023-02-17T03:10:28;12.30;;;7.05;;
55718;SDS011;41623;46.104;19.656;2023-02-17T03:12:54;10.20;;;7.22;;
55718;SDS011;41623;46.104;19.656;2023-02-17T03:15:31;11.02;;;7.60;;
55718;SDS011;41623;46.104;19.656;2023-02-17T03:17:58;11.13;;;6.25;;
55718;SDS011;41623;46.104;19.656;2023-02-17T03:20:25;16.17;;;8.00;;
55718;SDS011;41623;46.104;19.656;2023-02-17T03:22:52;17.38;;;8.10;;
55718;SDS011;41623;46.104;19.656;2023-02-17T03:25:18;12.18;;;7.07;;
55718;SDS011;41623;46.104;19.656;2023-02-17T03:27:44;18.80;;;7.57;;
55718;SDS011;41623;46.104;19.656;2023-02-17T03:30:10;11.38;;;8.20;;
55718;SDS011;41623;46.104;19.656;2023-02-17T03:32:36;18.85;;;8.52;;
55718;SDS011;41623;46.104;19.656;2023-02-17T03:35:03;15.45;;;9.02;;
55718;SDS011;41623;46.104;19.656;2023-02-17T03:37:29;13.90;;;8.20;;
55718;SDS011;41623;46.104;19.656;2023-02-17T03:39:55;12.55;;;5.90;;
55718;SDS011;41623;46.104;19.656;2023-02-17T03:42:21;10.43;;;6.32;;
55718;SDS011;41623;46.104;19.656;2023-02-17T03:44:47;9.88;;;6.55;;
55718;SDS011;41623;46.104;19.656;2023-02-17T03:47:13;13.70;;;7.10;;
55718;SDS011;41623;46.104;19.656;2023-02-17T03:49:40;11.75;;;6.85;;
55718;SDS011;41623;46.104;19.656;2023-02-17T03:52:05;11.23;;;6.80;;
55718;SDS011;41623;46.104;19.656;2023-02-17T03:54:32;10.60;;;6.18;;
55718;SDS011;41623;46.104;19.656;2023-02-17T03:56:58;15.85;;;7.90;;
55718;SDS011;41623;46.104;19.656;2023-02-17T03:59:25;15.02;;;7.68;;
55718;SDS011;41623;46.104;19.656;2023-02-17T04:01:51;10.65;;;6.30;;
55718;SDS011;41623;46.104;19.656;2023-02-17T04:04:17;10.48;;;6.78;;
55718;SDS011;41623;46.104;19.656;2023-02-17T04:06:43;16.80;;;8.05;;
55718;SDS011;41623;46.104;19.656;2023-02-17T04:09:09;15.60;;;8.88;;
55718;SDS011;41623;46.104;19.656;2023-02-17T04:11:35;14.73;;;8.25;;
55718;SDS011;41623;46.104;19.656;2023-02-17T04:14:01;14.48;;;7.57;;
55718;SDS011;41623;46.104;19.656;2023-02-17T04:16:27;15.82;;;9.23;;
55718;SDS011;41623;46.104;19.656;2023-02-17T04:18:53;12.43;;;7.53;;
55718;SDS011;41623;46.104;19.656;2023-02-17T04:21:19;22.70;;;10.27;;
55718;SDS011;41623;46.104;19.656;2023-02-17T04:23:45;16.85;;;9.40;;
55718;SDS011;41623;46.104;19.656;2023-02-17T04:26:13;13.35;;;8.85;;
55718;SDS011;41623;46.104;19.656;2023-02-17T04:28:39;16.75;;;8.93;;
55718;SDS011;41623;46.104;19.656;2023-02-17T04:31:06;20.83;;;8.93;;
55718;SDS011;41623;46.104;19.656;2023-02-17T04:33:32;14.85;;;7.57;;
55718;SDS011;41623;46.104;19.656;2023-02-17T04:35:59;19.35;;;9.50;;
55718;SDS011;41623;46.104;19.656;2023-02-17T04:38:26;13.25;;;9.05;;
55718;SDS011;41623;46.104;19.656;2023-02-17T04:40:53;16.30;;;10.30;;
55718;SDS011;41623;46.104;19.656;2023-02-17T04:43:19;24.60;;;13.80;;
55718;SDS011;41623;46.104;19.656;2023-02-17T04:45:45;16.50;;;8.20;;
55718;SDS011;41623;46.104;19.656;2023-02-17T04:48:11;18.08;;;10.20;;
55718;SDS011;41623;46.104;19.656;2023-02-17T04:50:37;18.17;;;9.80;;
55718;SDS011;41623;46.104;19.656;2023-02-17T04:53:04;16.60;;;9.43;;
55718;SDS011;41623;46.104;19.656;2023-02-17T04:55:30;17.70;;;9.38;;
55718;SDS011;41623;46.104;19.656;2023-02-17T04:57:57;22.55;;;10.60;;
55718;SDS011;41623;46.104;19.656;2023-02-17T05:00:24;27.33;;;12.90;;
55718;SDS011;41623;46.104;19.656;2023-02-17T05:02:50;18.95;;;11.48;;
55718;SDS011;41623;46.104;19.656;2023-02-17T05:05:16;23.38;;;10.65;;
55718;SDS011;41623;46.104;19.656;2023-02-17T05:07:43;17.95;;;9.63;;
55718;SDS011;41623;46.104;19.656;2023-02-17T05:10:09;20.95;;;10.25;;
55718;SDS011;41623;46.104;19.656;2023-02-17T05:12:35;14.48;;;9.23;;
55718;SDS011;41623;46.104;19.656;2023-02-17T05:15:02;23.05;;;11.15;;
55718;SDS011;41623;46.104;19.656;2023-02-17T05:17:28;25.73;;;12.32;;
55718;SDS011;41623;46.104;19.656;2023-02-17T05:19:54;17.65;;;11.85;;
55718;SDS011;41623;46.104;19.656;2023-02-17T05:22:20;30.58;;;12.93;;
55718;SDS011;41623;46.104;19.656;2023-02-17T05:24:46;17.17;;;12.30;;
55718;SDS011;41623;46.104;19.656;2023-02-17T05:27:12;20.33;;;12.05;;
55718;SDS011;41623;46.104;19.656;2023-02-17T05:29:39;21.17;;;11.02;;
55718;SDS011;41623;46.104;19.656;2023-02-17T05:32:05;24.77;;;12.20;;
55718;SDS011;41623;46.104;19.656;2023-02-17T05:34:31;18.08;;;10.43;;
55718;SDS011;41623;46.104;19.656;2023-02-17T05:36:57;22.73;;;11.27;;
55718;SDS011;41623;46.104;19.656;2023-02-17T05:39:23;25.25;;;13.15;;
55718;SDS011;41623;46.104;19.656;2023-02-17T05:41:50;22.92;;;14.02;;
55718;SDS011;41623;46.104;19.656;2023-02-17T05:44:16;31.27;;;15.15;;
55718;SDS011;41623;46.104;19.656;2023-02-17T05:46:42;25.85;;;14.02;;
55718;SDS011;41623;46.104;19.656;2023-02-17T05:49:09;20.25;;;11.98;;
55718;SDS011;41623;46.104;19.656;2023-02-17T05:51:36;20.05;;;12.27;;
55718;SDS011;41623;46.104;19.656;2023-02-17T05:54:02;24.15;;;15.18;;
55718;SDS011;41623;46.104;19.656;2023-02-17T05:56:28;27.05;;;14.30;;
55718;SDS011;41623;46.104;19.656;2023-02-17T05:58:54;28.17;;;16.20;;
55718;SDS011;41623;46.104;19.656;2023-02-17T06:01:20;26.75;;;12.75;;
55718;SDS011;41623;46.104;19.656;2023-02-17T06:03:46;18.65;;;10.23;;
55718;SDS011;41623;46.104;19.656;2023-02-17T06:06:13;18.50;;;10.68;;
55718;SDS011;41623;46.104;19.656;2023-02-17T06:08:39;26.08;;;14.23;;
55718;SDS011;41623;46.104;19.656;2023-02-17T06:11:05;32.25;;;17.42;;
55718;SDS011;41623;46.104;19.656;2023-02-17T06:13:31;31.08;;;18.25;;
55718;SDS011;41623;46.104;19.656;2023-02-17T06:15:57;43.20;;;19.00;;
55718;SDS011;41623;46.104;19.656;2023-02-17T06:18:23;32.28;;;17.98;;
55718;SDS011;41623;46.104;19.656;2023-02-17T06:20:49;40.05;;;17.30;;
55718;SDS011;41623;46.104;19.656;2023-02-17T06:23:15;34.22;;;18.08;;
55718;SDS011;41623;46.104;19.656;2023-02-17T06:25:41;26.77;;;15.40;;
55718;SDS011;41623;46.104;19.656;2023-02-17T06:28:08;31.30;;;16.13;;
55718;SDS011;41623;46.104;19.656;2023-02-17T06:30:34;24.25;;;13.45;;
55718;SDS011;41623;46.104;19.656;2023-02-17T06:33:00;44.85;;;22.15;;
55718;SDS011;41623;46.104;19.656;2023-02-17T06:35:26;61.72;;;26.42;;
55718;SDS011;41623;46.104;19.656;2023-02-17T06:37:52;41.65;;;20.20;;
55718;SDS011;41623;46.104;19.656;2023-02-17T06:40:18;33.60;;;19.00;;
55718;SDS011;41623;46.104;19.656;2023-02-17T06:42:45;34.25;;;18.73;;
55718;SDS011;41623;46.104;19.656;2023-02-17T06:45:12;31.20;;;17.35;;
55718;SDS011;41623;46.104;19.656;2023-02-17T06:47:38;47.47;;;23.75;;
55718;SDS011;41623;46.104;19.656;2023-02-17T06:50:04;32.67;;;19.92;;
55718;SDS011;41623;46.104;19.656;2023-02-17T06:52:30;33.92;;;20.08;;
55718;SDS011;41623;46.104;19.656;2023-02-17T06:54:56;33.25;;;18.92;;
55718;SDS011;41623;46.104;19.656;2023-02-17T06:57:22;37.20;;;19.65;;
55718;SDS011;41623;46.104;19.656;2023-02-17T06:59:49;32.22;;;17.35;;
55718;SDS011;41623;46.104;19.656;2023-02-17T07:02:15;34.50;;;17.77;;
55718;SDS011;41623;46.104;19.656;2023-02-17T07:04:41;35.05;;;15.57;;
55718;SDS011;41623;46.104;19.656;2023-02-17T07:07:08;28.95;;;13.75;;
55718;SDS011;41623;46.104;19.656;2023-02-17T07:09:34;24.83;;;14.85;;
55718;SDS011;41623;46.104;19.656;2023-02-17T07:12:00;22.17;;;12.75;;
55718;SDS011;41623;46.104;19.656;2023-02-17T07:14:26;23.35;;;14.68;;
55718;SDS011;41623;46.104;19.656;2023-02-17T07:16:52;21.02;;;11.73;;
55718;SDS011;41623;46.104;19.656;2023-02-17T07:19:19;19.83;;;10.90;;
55718;SDS011;41623;46.104;19.656;2023-02-17T07:21:45;19.38;;;10.43;;
55718;SDS011;41623;46.104;19.656;2023-02-17T07:24:11;21.63;;;11.07;;
55718;SDS011;41623;46.104;19.656;2023-02-17T07:26:37;15.93;;;9.60;;
55718;SDS011;41623;46.104;19.656;2023-02-17T07:29:04;11.75;;;7.78;;
55718;SDS011;41623;46.104;19.656;2023-02-17T07:31:31;14.95;;;8.10;;
55718;SDS011;41623;46.104;19.656;2023-02-17T07:33:57;15.57;;;7.80;;
55718;SDS011;41623;46.104;19.656;2023-02-17T07:36:23;12.43;;;8.80;;
55718;SDS011;41623;46.104;19.656;2023-02-17T07:38:49;15.18;;;8.40;;
55718;SDS011;41623;46.104;19.656;2023-02-17T07:41:17;10.13;;;6.80;;
55718;SDS011;41623;46.104;19.656;2023-02-17T07:43:43;15.43;;;9.05;;
55718;SDS011;41623;46.104;19.656;2023-02-17T07:46:09;13.32;;;7.95;;
55718;SDS011;41623;46.104;19.656;2023-02-17T07:48:36;18.75;;;10.07;;
55718;SDS011;41623;46.104;19.656;2023-02-17T07:51:05;17.35;;;11.10;;
55718;SDS011;41623;46.104;19.656;2023-02-17T07:53:32;19.88;;;9.45;;
55718;SDS011;41623;46.104;19.656;2023-02-17T07:55:58;11.68;;;8.32;;
55718;SDS011;41623;46.104;19.656;2023-02-17T07:58:26;8.98;;;7.53;;
55718;SDS011;41623;46.104;19.656;2023-02-17T08:00:52;11.27;;;6.82;;
55718;SDS011;41623;46.104;19.656;2023-02-17T08:03:18;10.85;;;6.90;;
55718;SDS011;41623;46.104;19.656;2023-02-17T08:05:44;10.38;;;6.68;;
55718;SDS011;41623;46.104;19.656;2023-02-17T08:08:11;14.98;;;8.07;;
55718;SDS011;41623;46.104;19.656;2023-02-17T08:10:59;15.52;;;8.02;;
55718;SDS011;41623;46.104;19.656;2023-02-17T08:13:44;13.15;;;6.05;;
55718;SDS011;41623;46.104;19.656;2023-02-17T08:16:10;14.77;;;8.07;;
55718;SDS011;41623;46.104;19.656;2023-02-17T08:18:36;12.65;;;6.70;;
55718;SDS011;41623;46.104;19.656;2023-02-17T08:21:02;11.35;;;8.02;;
55718;SDS011;41623;46.104;19.656;2023-02-17T08:23:28;11.25;;;7.35;;
55718;SDS011;41623;46.104;19.656;2023-02-17T08:25:55;13.25;;;7.30;;
55718;SDS011;41623;46.104;19.656;2023-02-17T08:28:22;11.50;;;7.45;;
55718;SDS011;41623;46.104;19.656;2023-02-17T08:30:48;15.07;;;7.07;;
55718;SDS011;41623;46.104;19.656;2023-02-17T08:33:14;14.05;;;7.38;;
55718;SDS011;41623;46.104;19.656;2023-02-17T08:35:43;15.65;;;7.40;;
55718;SDS011;41623;46.104;19.656;2023-02-17T08:38:09;11.25;;;6.55;;
55718;SDS011;41623;46.104;19.656;2023-02-17T08:40:35;14.10;;;8.05;;
55718;SDS011;41623;46.104;19.656;2023-02-17T08:43:02;10.95;;;7.28;;
55718;SDS011;41623;46.104;19.656;2023-02-17T08:45:29;12.07;;;6.72;;
55718;SDS011;41623;46.104;19.656;2023-02-17T08:47:55;6.57;;;5.65;;
55718;SDS011;41623;46.104;19.656;2023-02-17T08:50:21;17.02;;;7.00;;
55718;SDS011;41623;46.104;19.656;2023-02-17T08:52:47;6.10;;;4.60;;
55718;SDS011;41623;46.104;19.656;2023-02-17T08:55:14;9.60;;;5.60;;
55718;SDS011;41623;46.104;19.656;2023-02-17T08:57:42;6.70;;;4.50;;
55718;SDS011;41623;46.104;19.656;2023-02-17T09:00:09;8.98;;;4.40;;
55718;SDS011;41623;46.104;19.656;2023-02-17T09:02:35;10.18;;;4.68;;
55718;SDS011;41623;46.104;19.656;2023-02-17T09:05:02;7.63;;;4.72;;
55718;SDS011;41623;46.104;19.656;2023-02-17T09:07:28;12.52;;;7.70;;
55718;SDS011;41623;46.104;19.656;2023-02-17T09:09:54;14.82;;;6.25;;
55718;SDS011;41623;46.104;19.656;2023-02-17T09:12:20;9.43;;;6.78;;
55718;SDS011;41623;46.104;19.656;2023-02-17T09:14:46;7.90;;;4.45;;
55718;SDS011;41623;46.104;19.656;2023-02-17T09:17:13;8.60;;;4.80;;
55718;SDS011;41623;46.104;19.656;2023-02-17T09:19:39;9.05;;;4.65;;
55718;SDS011;41623;46.104;19.656;2023-02-17T09:22:05;8.02;;;3.80;;
55718;SDS011;41623;46.104;19.656;2023-02-17T09:24:31;4.68;;;3.50;;
55718;SDS011;41623;46.104;19.656;2023-02-17T09:27:00;6.18;;;2.78;;
55718;SDS011;41623;46.104;19.656;2023-02-17T09:29:27;7.55;;;4.32;;
55718;SDS011;41623;46.104;19.656;2023-02-17T09:31:53;7.50;;;4.35;;
55718;SDS011;41623;46.104;19.656;2023-02-17T09:34:20;11.13;;;5.45;;
55718;SDS011;41623;46.104;19.656;2023-02-17T09:36:46;8.57;;;4.90;;
55718;SDS011;41623;46.104;19.656;2023-02-17T09:39:14;8.15;;;4.68;;
55718;SDS011;41623;46.104;19.656;2023-02-17T09:41:44;4.85;;;3.17;;
55718;SDS011;41623;46.104;19.656;2023-02-17T09:44:21;9.35;;;5.07;;
55718;SDS011;41623;46.104;19.656;2023-02-17T09:46:56;9.23;;;4.07;;
55718;SDS011;41623;46.104;19.656;2023-02-17T09:49:25;6.20;;;3.80;;
55718;SDS011;41623;46.104;19.656;2023-02-17T09:54:39;9.57;;;4.28;;
55718;SDS011;41623;46.104;19.656;2023-02-17T09:57:07;5.13;;;3.30;;
55718;SDS011;41623;46.104;19.656;2023-02-17T09:59:41;4.18;;;2.40;;
55718;SDS011;41623;46.104;19.656;2023-02-17T10:02:23;7.35;;;3.45;;
55718;SDS011;41623;46.104;19.656;2023-02-17T10:04:50;7.30;;;4.68;;
55718;SDS011;41623;46.104;19.656;2023-02-17T10:07:19;4.28;;;3.17;;
55718;SDS011;41623;46.104;19.656;2023-02-17T10:09:50;10.57;;;3.28;;
55718;SDS011;41623;46.104;19.656;2023-02-17T10:12:19;8.00;;;4.03;;
55718;SDS011;41623;46.104;19.656;2023-02-17T10:20:02;11.35;;;4.72;;
55718;SDS011;41623;46.104;19.656;2023-02-17T10:22:30;7.93;;;4.82;;
55718;SDS011;41623;46.104;19.656;2023-02-17T10:24:56;6.10;;;4.30;;
55718;SDS011;41623;46.104;19.656;2023-02-17T10:27:31;6.82;;;4.28;;
55718;SDS011;41623;46.104;19.656;2023-02-17T10:30:02;8.15;;;5.15;;
55718;SDS011;41623;46.104;19.656;2023-02-17T10:32:29;9.25;;;5.22;;
55718;SDS011;41623;46.104;19.656;2023-02-17T10:37:41;6.22;;;3.20;;
55718;SDS011;41623;46.104;19.656;2023-02-17T10:40:17;6.30;;;3.22;;
55718;SDS011;41623;46.104;19.656;2023-02-17T10:42:44;5.00;;;3.78;;
55718;SDS011;41623;46.104;19.656;2023-02-17T10:45:12;3.97;;;2.65;;
55718;SDS011;41623;46.104;19.656;2023-02-17T10:47:40;9.15;;;5.22;;
55718;SDS011;41623;46.104;19.656;2023-02-17T10:50:12;6.82;;;3.67;;
55718;SDS011;41623;46.104;19.656;2023-02-17T10:52:39;8.27;;;4.30;;
55718;SDS011;41623;46.104;19.656;2023-02-17T10:57:36;7.30;;;4.00;;
55718;SDS011;41623;46.104;19.656;2023-02-17T11:00:04;7.65;;;2.88;;
55718;SDS011;41623;46.104;19.656;2023-02-17T11:02:43;5.28;;;3.47;;
55718;SDS011;41623;46.104;19.656;2023-02-17T11:05:29;7.75;;;3.42;;
55718;SDS011;41623;46.104;19.656;2023-02-17T11:07:56;8.02;;;3.78;;
55718;SDS011;41623;46.104;19.656;2023-02-17T11:10:28;5.03;;;3.85;;
55718;SDS011;41623;46.104;19.656;2023-02-17T11:12:54;5.65;;;3.33;;
55718;SDS011;41623;46.104;19.656;2023-02-17T11:15:23;7.25;;;3.90;;
55718;SDS011;41623;46.104;19.656;2023-02-17T11:17:49;2.20;;;1.98;;
55718;SDS011;41623;46.104;19.656;2023-02-17T11:22:43;5.30;;;2.88;;
55718;SDS011;41623;46.104;19.656;2023-02-17T11:25:22;3.45;;;2.88;;
55718;SDS011;41623;46.104;19.656;2023-02-17T11:27:52;11.93;;;3.55;;
55718;SDS011;41623;46.104;19.656;2023-02-17T11:30:19;8.35;;;2.95;;
55718;SDS011;41623;46.104;19.656;2023-02-17T11:32:45;7.63;;;2.97;;
55718;SDS011;41623;46.104;19.656;2023-02-17T11:38:15;7.10;;;3.53;;
55718;SDS011;41623;46.104;19.656;2023-02-17T11:40:50;6.28;;;2.45;;
55718;SDS011;41623;46.104;19.656;2023-02-17T11:43:16;3.70;;;2.45;;
55718;SDS011;41623;46.104;19.656;2023-02-17T11:45:47;4.60;;;3.00;;
55718;SDS011;41623;46.104;19.656;2023-02-17T11:51:21;9.77;;;3.00;;
55718;SDS011;41623;46.104;19.656;2023-02-17T11:56:39;5.50;;;3.28;;
55718;SDS011;41623;46.104;19.656;2023-02-17T11:59:19;5.00;;;3.75;;
55718;SDS011;41623;46.104;19.656;2023-02-17T12:04:32;3.53;;;2.63;;
55718;SDS011;41623;46.104;19.656;2023-02-17T12:12:28;4.15;;;2.42;;
55718;SDS011;41623;46.104;19.656;2023-02-17T12:22:59;4.60;;;2.00;;
55718;SDS011;41623;46.104;19.656;2023-02-17T12:25:32;4.70;;;3.22;;
55718;SDS011;41623;46.104;19.656;2023-02-17T12:35:55;3.72;;;2.22;;
55718;SDS011;41623;46.104;19.656;2023-02-17T12:38:29;2.95;;;1.75;;
55718;SDS011;41623;46.104;19.656;2023-02-17T12:43:35;11.18;;;3.03;;
55718;SDS011;41623;46.104;19.656;2023-02-17T12:46:04;2.38;;;1.52;;
55718;SDS011;41623;46.104;19.656;2023-02-17T12:48:37;4.60;;;2.95;;
55718;SDS011;41623;46.104;19.656;2023-02-17T12:51:17;1.95;;;1.73;;
55718;SDS011;41623;46.104;19.656;2023-02-17T12:54:04;6.63;;;2.92;;
55718;SDS011;41623;46.104;19.656;2023-02-17T12:59:16;2.33;;;1.55;;
55718;SDS011;41623;46.104;19.656;2023-02-17T13:01:50;9.23;;;2.15;;
55718;SDS011;41623;46.104;19.656;2023-02-17T13:04:17;5.20;;;2.60;;
55718;SDS011;41623;46.104;19.656;2023-02-17T13:06:46;3.10;;;1.45;;
55718;SDS011;41623;46.104;19.656;2023-02-17T13:09:29;2.35;;;1.88;;
55718;SDS011;41623;46.104;19.656;2023-02-17T13:17:04;7.53;;;2.85;;
55718;SDS011;41623;46.104;19.656;2023-02-17T13:19:31;3.83;;;2.22;;
55718;SDS011;41623;46.104;19.656;2023-02-17T13:21:58;2.58;;;2.17;;
55718;SDS011;41623;46.104;19.656;2023-02-17T13:24:33;1.73;;;1.48;;
55718;SDS011;41623;46.104;19.656;2023-02-17T13:31:56;3.50;;;2.33;;
55718;SDS011;41623;46.104;19.656;2023-02-17T13:34:28;4.25;;;1.67;;
55718;SDS011;41623;46.104;19.656;2023-02-17T13:36:54;2.35;;;1.92;;
55718;SDS011;41623;46.104;19.656;2023-02-17T13:41:53;2.05;;;1.88;;
55718;SDS011;41623;46.104;19.656;2023-02-17T13:47:02;2.45;;;1.40;;
55718;SDS011;41623;46.104;19.656;2023-02-17T13:49:29;4.20;;;2.00;;
55718;SDS011;41623;46.104;19.656;2023-02-17T13:52:18;3.30;;;2.28;;
55718;SDS011;41623;46.104;19.656;2023-02-17T13:55:05;2.40;;;2.10;;
55718;SDS011;41623;46.104;19.656;2023-02-17T13:57:33;3.65;;;1.77;;
55718;SDS011;41623;46.104;19.656;2023-02-17T14:02:32;2.03;;;1.92;;
55718;SDS011;41623;46.104;19.656;2023-02-17T14:04:58;2.28;;;1.90;;
55718;SDS011;41623;46.104;19.656;2023-02-17T14:07:25;2.55;;;2.10;;
55718;SDS011;41623;46.104;19.656;2023-02-17T14:09:52;4.03;;;1.92;;
55718;SDS011;41623;46.104;19.656;2023-02-17T14:12:22;4.03;;;2.72;;
55718;SDS011;41623;46.104;19.656;2023-02-17T14:14:50;3.05;;;2.08;;
55718;SDS011;41623;46.104;19.656;2023-02-17T14:17:29;3.53;;;1.63;;
55718;SDS011;41623;46.104;19.656;2023-02-17T14:19:56;1.80;;;1.58;;
55718;SDS011;41623;46.104;19.656;2023-02-17T14:25:11;7.57;;;2.15;;
55718;SDS011;41623;46.104;19.656;2023-02-17T14:27:45;3.40;;;2.30;;
55718;SDS011;41623;46.104;19.656;2023-02-17T14:30:26;2.42;;;1.92;;
55718;SDS011;41623;46.104;19.656;2023-02-17T14:33:17;3.00;;;1.77;;
55718;SDS011;41623;46.104;19.656;2023-02-17T14:35:50;2.35;;;1.80;;
55718;SDS011;41623;46.104;19.656;2023-02-17T14:38:21;1.88;;;1.60;;
55718;SDS011;41623;46.104;19.656;2023-02-17T14:40:48;3.60;;;2.22;;
55718;SDS011;41623;46.104;19.656;2023-02-17T14:43:14;4.03;;;1.92;;
55718;SDS011;41623;46.104;19.656;2023-02-17T14:45:40;2.00;;;1.48;;
55718;SDS011;41623;46.104;19.656;2023-02-17T14:48:07;4.03;;;2.17;;
55718;SDS011;41623;46.104;19.656;2023-02-17T14:50:33;3.42;;;2.10;;
55718;SDS011;41623;46.104;19.656;2023-02-17T14:53:08;1.53;;;1.43;;
55718;SDS011;41623;46.104;19.656;2023-02-17T14:55:40;7.65;;;3.10;;
55718;SDS011;41623;46.104;19.656;2023-02-17T14:58:08;2.53;;;1.92;;
55718;SDS011;41623;46.104;19.656;2023-02-17T15:00:36;5.82;;;3.75;;
55718;SDS011;41623;46.104;19.656;2023-02-17T15:03:02;2.70;;;2.05;;
55718;SDS011;41623;46.104;19.656;2023-02-17T15:05:28;4.40;;;2.58;;
55718;SDS011;41623;46.104;19.656;2023-02-17T15:07:54;5.38;;;3.03;;
55718;SDS011;41623;46.104;19.656;2023-02-17T15:10:29;3.55;;;2.60;;
55718;SDS011;41623;46.104;19.656;2023-02-17T15:12:55;4.35;;;2.10;;
55718;SDS011;41623;46.104;19.656;2023-02-17T15:15:21;5.47;;;2.65;;
55718;SDS011;41623;46.104;19.656;2023-02-17T15:17:47;4.55;;;3.17;;
55718;SDS011;41623;46.104;19.656;2023-02-17T15:20:14;4.95;;;2.13;;
55718;SDS011;41623;46.104;19.656;2023-02-17T15:22:40;5.40;;;3.40;;
55718;SDS011;41623;46.104;19.656;2023-02-17T15:25:18;4.95;;;2.58;;
55718;SDS011;41623;46.104;19.656;2023-02-17T15:27:46;5.07;;;2.65;;
55718;SDS011;41623;46.104;19.656;2023-02-17T15:30:13;4.30;;;2.17;;
55718;SDS011;41623;46.104;19.656;2023-02-17T15:32:40;4.68;;;2.20;;
55718;SDS011;41623;46.104;19.656;2023-02-17T15:35:17;2.75;;;1.83;;
55718;SDS011;41623;46.104;19.656;2023-02-17T15:37:44;6.07;;;2.55;;
55718;SDS011;41623;46.104;19.656;2023-02-17T15:40:17;8.15;;;2.70;;
55718;SDS011;41623;46.104;19.656;2023-02-17T15:42:44;5.35;;;2.92;;
55718;SDS011;41623;46.104;19.656;2023-02-17T15:45:12;12.73;;;2.78;;
55718;SDS011;41623;46.104;19.656;2023-02-17T15:47:38;10.85;;;4.68;;
55718;SDS011;41623;46.104;19.656;2023-02-17T15:50:08;9.85;;;3.97;;
55718;SDS011;41623;46.104;19.656;2023-02-17T15:52:35;4.88;;;3.30;;
55718;SDS011;41623;46.104;19.656;2023-02-17T15:55:01;11.10;;;4.88;;
55718;SDS011;41623;46.104;19.656;2023-02-17T15:57:27;10.18;;;4.40;;
55718;SDS011;41623;46.104;19.656;2023-02-17T15:59:54;13.50;;;5.68;;
55718;SDS011;41623;46.104;19.656;2023-02-17T16:02:22;6.43;;;4.05;;
55718;SDS011;41623;46.104;19.656;2023-02-17T16:04:48;11.20;;;3.80;;